sensor_id;sensor_type;location;lat;lon;timestamp;temperature;humidity
48551;DHT22;34397;51.176;6.738;2022-10-31T00:00:27;15.20;59.00
48551;DHT22;34397;51.176;6.738;2022-10-31T00:02:59;15.10;58.90
48551;DHT22;34397;51.176;6.738;2022-10-31T00:05:31;15.10;58.60
48551;DHT22;34397;51.176;6.738;2022-10-31T00:08:02;15.10;58.80
48551;DHT22;34397;51.176;6.738;2022-10-31T00:10:38;15.00;58.60
48551;DHT22;34397;51.176;6.738;2022-10-31T00:13:10;15.00;58.70
48551;DHT22;34397;51.176;6.738;2022-10-31T00:15:42;14.90;58.70
48551;DHT22;34397;51.176;6.738;2022-10-31T00:18:14;14.90;58.80
48551;DHT22;34397;51.176;6.738;2022-10-31T00:20:46;14.90;58.60
48551;DHT22;34397;51.176;6.738;2022-10-31T00:23:17;14.90;58.70
48551;DHT22;34397;51.176;6.738;2022-10-31T00:25:50;14.80;58.80
48551;DHT22;34397;51.176;6.738;2022-10-31T00:28:22;14.80;59.00
48551;DHT22;34397;51.176;6.738;2022-10-31T00:30:54;14.80;59.20
48551;DHT22;34397;51.176;6.738;2022-10-31T00:33:25;14.80;59.20
48551;DHT22;34397;51.176;6.738;2022-10-31T00:35:57;14.80;59.30
48551;DHT22;34397;51.176;6.738;2022-10-31T00:38:29;14.70;59.40
48551;DHT22;34397;51.176;6.738;2022-10-31T00:41:02;14.70;59.40
48551;DHT22;34397;51.176;6.738;2022-10-31T00:43:34;14.70;59.40
48551;DHT22;34397;51.176;6.738;2022-10-31T00:46:05;14.70;59.60
48551;DHT22;34397;51.176;6.738;2022-10-31T00:48:37;14.70;59.70
48551;DHT22;34397;51.176;6.738;2022-10-31T00:51:09;14.70;59.80
48551;DHT22;34397;51.176;6.738;2022-10-31T00:53:41;14.70;59.90
48551;DHT22;34397;51.176;6.738;2022-10-31T00:56:14;14.70;59.70
48551;DHT22;34397;51.176;6.738;2022-10-31T00:58:45;14.70;59.90
48551;DHT22;34397;51.176;6.738;2022-10-31T01:01:17;14.70;60.00
48551;DHT22;34397;51.176;6.738;2022-10-31T01:03:48;14.70;60.60
48551;DHT22;34397;51.176;6.738;2022-10-31T01:06:20;14.80;61.40
48551;DHT22;34397;51.176;6.738;2022-10-31T01:08:52;14.80;61.40
48551;DHT22;34397;51.176;6.738;2022-10-31T01:11:25;14.90;61.60
48551;DHT22;34397;51.176;6.738;2022-10-31T01:13:56;14.90;61.50
48551;DHT22;34397;51.176;6.738;2022-10-31T01:16:28;14.90;61.10
48551;DHT22;34397;51.176;6.738;2022-10-31T01:19:00;14.90;61.20
48551;DHT22;34397;51.176;6.738;2022-10-31T01:21:32;14.90;61.20
48551;DHT22;34397;51.176;6.738;2022-10-31T01:24:04;14.90;61.30
48551;DHT22;34397;51.176;6.738;2022-10-31T01:26:38;14.90;61.10
48551;DHT22;34397;51.176;6.738;2022-10-31T01:29:09;14.90;61.20
48551;DHT22;34397;51.176;6.738;2022-10-31T01:31:41;14.90;61.50
48551;DHT22;34397;51.176;6.738;2022-10-31T01:34:13;14.90;61.60
48551;DHT22;34397;51.176;6.738;2022-10-31T01:36:46;14.90;61.50
48551;DHT22;34397;51.176;6.738;2022-10-31T01:39:21;14.90;61.40
48551;DHT22;34397;51.176;6.738;2022-10-31T01:41:54;14.90;61.80
48551;DHT22;34397;51.176;6.738;2022-10-31T01:44:48;14.90;61.70
48551;DHT22;34397;51.176;6.738;2022-10-31T01:47:27;14.90;61.30
48551;DHT22;34397;51.176;6.738;2022-10-31T01:50:04;14.80;61.20
48551;DHT22;34397;51.176;6.738;2022-10-31T01:52:40;14.80;61.00
48551;DHT22;34397;51.176;6.738;2022-10-31T01:55:15;14.80;61.10
48551;DHT22;34397;51.176;6.738;2022-10-31T01:57:50;14.80;60.90
48551;DHT22;34397;51.176;6.738;2022-10-31T02:00:23;14.70;61.00
48551;DHT22;34397;51.176;6.738;2022-10-31T02:02:55;14.70;60.90
48551;DHT22;34397;51.176;6.738;2022-10-31T02:05:27;14.70;60.90
48551;DHT22;34397;51.176;6.738;2022-10-31T02:08:01;14.70;60.90
48551;DHT22;34397;51.176;6.738;2022-10-31T02:10:35;14.70;60.80
48551;DHT22;34397;51.176;6.738;2022-10-31T02:13:09;14.60;60.80
48551;DHT22;34397;51.176;6.738;2022-10-31T02:15:43;14.60;60.90
48551;DHT22;34397;51.176;6.738;2022-10-31T02:18:15;14.60;60.90
48551;DHT22;34397;51.176;6.738;2022-10-31T02:20:51;14.50;60.80
48551;DHT22;34397;51.176;6.738;2022-10-31T02:26:45;14.50;60.80
48551;DHT22;34397;51.176;6.738;2022-10-31T02:29:32;14.50;60.90
48551;DHT22;34397;51.176;6.738;2022-10-31T02:32:18;14.40;60.90
48551;DHT22;34397;51.176;6.738;2022-10-31T02:34:56;14.40;60.90
48551;DHT22;34397;51.176;6.738;2022-10-31T02:37:32;14.30;61.00
48551;DHT22;34397;51.176;6.738;2022-10-31T02:40:10;14.30;60.90
48551;DHT22;34397;51.176;6.738;2022-10-31T02:42:46;14.30;61.00
48551;DHT22;34397;51.176;6.738;2022-10-31T02:45:21;14.20;61.00
48551;DHT22;34397;51.176;6.738;2022-10-31T02:48:01;14.20;61.10
48551;DHT22;34397;51.176;6.738;2022-10-31T02:50:37;14.20;61.30
48551;DHT22;34397;51.176;6.738;2022-10-31T02:53:13;14.20;62.30
48551;DHT22;34397;51.176;6.738;2022-10-31T02:55:50;14.20;62.30
48551;DHT22;34397;51.176;6.738;2022-10-31T02:58:26;14.20;62.40
48551;DHT22;34397;51.176;6.738;2022-10-31T03:01:03;14.20;62.30
48551;DHT22;34397;51.176;6.738;2022-10-31T03:04:10;14.20;62.30
48551;DHT22;34397;51.176;6.738;2022-10-31T03:07:04;14.20;62.10
48551;DHT22;34397;51.176;6.738;2022-10-31T03:09:41;14.20;62.20
48551;DHT22;34397;51.176;6.738;2022-10-31T03:12:18;14.20;62.60
48551;DHT22;34397;51.176;6.738;2022-10-31T03:14:55;14.20;62.80
48551;DHT22;34397;51.176;6.738;2022-10-31T03:17:31;14.20;62.60
48551;DHT22;34397;51.176;6.738;2022-10-31T03:20:08;14.20;62.20
48551;DHT22;34397;51.176;6.738;2022-10-31T03:22:42;14.20;62.10
48551;DHT22;34397;51.176;6.738;2022-10-31T03:25:14;14.20;62.10
48551;DHT22;34397;51.176;6.738;2022-10-31T03:27:46;14.10;62.00
48551;DHT22;34397;51.176;6.738;2022-10-31T03:30:18;14.10;62.00
48551;DHT22;34397;51.176;6.738;2022-10-31T03:32:51;14.10;62.30
48551;DHT22;34397;51.176;6.738;2022-10-31T03:35:25;14.10;62.50
48551;DHT22;34397;51.176;6.738;2022-10-31T03:37:58;14.10;62.50
48551;DHT22;34397;51.176;6.738;2022-10-31T03:40:31;14.00;62.30
48551;DHT22;34397;51.176;6.738;2022-10-31T03:43:07;14.00;62.40
48551;DHT22;34397;51.176;6.738;2022-10-31T03:45:40;14.00;63.30
48551;DHT22;34397;51.176;6.738;2022-10-31T03:48:15;14.00;63.80
48551;DHT22;34397;51.176;6.738;2022-10-31T03:50:49;14.00;63.40
48551;DHT22;34397;51.176;6.738;2022-10-31T03:53:26;14.00;63.10
48551;DHT22;34397;51.176;6.738;2022-10-31T03:56:02;13.90;63.00
48551;DHT22;34397;51.176;6.738;2022-10-31T03:58:43;13.80;62.70
48551;DHT22;34397;51.176;6.738;2022-10-31T04:01:18;13.80;62.70
48551;DHT22;34397;51.176;6.738;2022-10-31T04:03:51;13.80;63.00
48551;DHT22;34397;51.176;6.738;2022-10-31T04:06:24;13.80;63.30
48551;DHT22;34397;51.176;6.738;2022-10-31T04:08:57;13.70;63.00
48551;DHT22;34397;51.176;6.738;2022-10-31T04:11:33;13.70;62.90
48551;DHT22;34397;51.176;6.738;2022-10-31T04:14:06;13.70;62.80
48551;DHT22;34397;51.176;6.738;2022-10-31T04:16:38;13.60;62.70
48551;DHT22;34397;51.176;6.738;2022-10-31T04:19:10;13.60;62.40
48551;DHT22;34397;51.176;6.738;2022-10-31T04:21:44;13.60;62.60
48551;DHT22;34397;51.176;6.738;2022-10-31T04:24:15;13.60;62.80
48551;DHT22;34397;51.176;6.738;2022-10-31T04:26:47;13.50;62.80
48551;DHT22;34397;51.176;6.738;2022-10-31T04:29:18;13.50;62.90
48551;DHT22;34397;51.176;6.738;2022-10-31T04:31:50;13.50;62.90
48551;DHT22;34397;51.176;6.738;2022-10-31T04:34:22;13.50;62.90
48551;DHT22;34397;51.176;6.738;2022-10-31T04:36:55;13.50;63.00
48551;DHT22;34397;51.176;6.738;2022-10-31T04:39:26;13.50;63.20
48551;DHT22;34397;51.176;6.738;2022-10-31T04:41:58;13.50;63.30
48551;DHT22;34397;51.176;6.738;2022-10-31T04:44:30;13.50;63.30
48551;DHT22;34397;51.176;6.738;2022-10-31T04:47:01;13.50;63.40
48551;DHT22;34397;51.176;6.738;2022-10-31T04:49:33;13.50;63.40
48551;DHT22;34397;51.176;6.738;2022-10-31T04:52:06;13.50;63.20
48551;DHT22;34397;51.176;6.738;2022-10-31T04:54:38;13.50;63.40
48551;DHT22;34397;51.176;6.738;2022-10-31T04:57:10;13.40;63.30
48551;DHT22;34397;51.176;6.738;2022-10-31T04:59:41;13.40;63.20
48551;DHT22;34397;51.176;6.738;2022-10-31T05:02:13;13.40;63.30
48551;DHT22;34397;51.176;6.738;2022-10-31T05:04:45;13.40;63.70
48551;DHT22;34397;51.176;6.738;2022-10-31T05:07:18;13.40;63.70
48551;DHT22;34397;51.176;6.738;2022-10-31T05:09:49;13.40;63.60
48551;DHT22;34397;51.176;6.738;2022-10-31T05:12:21;13.40;63.60
48551;DHT22;34397;51.176;6.738;2022-10-31T05:14:53;13.40;63.50
48551;DHT22;34397;51.176;6.738;2022-10-31T05:17:24;13.30;63.40
48551;DHT22;34397;51.176;6.738;2022-10-31T05:19:56;13.40;63.50
48551;DHT22;34397;51.176;6.738;2022-10-31T05:22:29;13.40;63.50
48551;DHT22;34397;51.176;6.738;2022-10-31T05:25:01;13.30;63.40
48551;DHT22;34397;51.176;6.738;2022-10-31T05:27:32;13.30;63.30
48551;DHT22;34397;51.176;6.738;2022-10-31T05:30:04;13.30;63.40
48551;DHT22;34397;51.176;6.738;2022-10-31T05:32:37;13.30;63.40
48551;DHT22;34397;51.176;6.738;2022-10-31T05:35:10;13.30;63.60
48551;DHT22;34397;51.176;6.738;2022-10-31T05:37:44;13.20;63.50
48551;DHT22;34397;51.176;6.738;2022-10-31T05:40:16;13.30;63.60
48551;DHT22;34397;51.176;6.738;2022-10-31T05:42:50;13.20;63.70
48551;DHT22;34397;51.176;6.738;2022-10-31T05:45:22;13.20;63.80
48551;DHT22;34397;51.176;6.738;2022-10-31T05:47:55;13.20;63.80
48551;DHT22;34397;51.176;6.738;2022-10-31T05:50:28;13.20;63.90
48551;DHT22;34397;51.176;6.738;2022-10-31T05:53:03;13.20;64.00
48551;DHT22;34397;51.176;6.738;2022-10-31T05:55:35;13.20;64.00
48551;DHT22;34397;51.176;6.738;2022-10-31T05:58:07;13.20;63.90
48551;DHT22;34397;51.176;6.738;2022-10-31T06:00:38;13.10;63.80
48551;DHT22;34397;51.176;6.738;2022-10-31T06:03:10;13.20;63.90
48551;DHT22;34397;51.176;6.738;2022-10-31T06:05:42;13.10;64.00
48551;DHT22;34397;51.176;6.738;2022-10-31T06:08:15;13.10;64.00
48551;DHT22;34397;51.176;6.738;2022-10-31T06:10:46;13.10;64.00
48551;DHT22;34397;51.176;6.738;2022-10-31T06:13:18;13.10;63.90
48551;DHT22;34397;51.176;6.738;2022-10-31T06:15:50;13.10;64.00
48551;DHT22;34397;51.176;6.738;2022-10-31T06:18:21;13.10;64.20
48551;DHT22;34397;51.176;6.738;2022-10-31T06:20:53;13.10;64.50
48551;DHT22;34397;51.176;6.738;2022-10-31T06:23:26;13.10;64.80
48551;DHT22;34397;51.176;6.738;2022-10-31T06:25:58;13.10;64.70
48551;DHT22;34397;51.176;6.738;2022-10-31T06:28:29;13.10;64.60
48551;DHT22;34397;51.176;6.738;2022-10-31T06:31:01;13.10;64.60
48551;DHT22;34397;51.176;6.738;2022-10-31T06:33:33;13.10;64.60
48551;DHT22;34397;51.176;6.738;2022-10-31T06:36:05;13.10;64.60
48551;DHT22;34397;51.176;6.738;2022-10-31T06:38:38;13.10;64.50
48551;DHT22;34397;51.176;6.738;2022-10-31T06:41:10;13.00;64.40
48551;DHT22;34397;51.176;6.738;2022-10-31T06:43:42;13.00;64.40
48551;DHT22;34397;51.176;6.738;2022-10-31T06:46:14;13.00;64.40
48551;DHT22;34397;51.176;6.738;2022-10-31T06:48:45;13.00;64.30
48551;DHT22;34397;51.176;6.738;2022-10-31T06:51:17;12.90;64.30
48551;DHT22;34397;51.176;6.738;2022-10-31T06:53:50;13.00;64.50
48551;DHT22;34397;51.176;6.738;2022-10-31T06:56:22;12.90;64.70
48551;DHT22;34397;51.176;6.738;2022-10-31T06:58:53;13.00;64.60
48551;DHT22;34397;51.176;6.738;2022-10-31T07:01:25;12.90;64.80
48551;DHT22;34397;51.176;6.738;2022-10-31T07:03:57;13.00;65.10
48551;DHT22;34397;51.176;6.738;2022-10-31T07:06:29;13.00;65.10
48551;DHT22;34397;51.176;6.738;2022-10-31T07:09:02;13.00;64.70
48551;DHT22;34397;51.176;6.738;2022-10-31T07:11:34;13.00;64.60
48551;DHT22;34397;51.176;6.738;2022-10-31T07:14:05;13.00;64.60
48551;DHT22;34397;51.176;6.738;2022-10-31T07:16:37;13.00;64.50
48551;DHT22;34397;51.176;6.738;2022-10-31T07:19:09;13.00;64.80
48551;DHT22;34397;51.176;6.738;2022-10-31T07:21:41;13.00;64.90
48551;DHT22;34397;51.176;6.738;2022-10-31T07:24:14;13.00;64.90
48551;DHT22;34397;51.176;6.738;2022-10-31T07:26:45;13.00;64.80
48551;DHT22;34397;51.176;6.738;2022-10-31T07:29:17;13.00;65.00
48551;DHT22;34397;51.176;6.738;2022-10-31T07:31:49;13.10;65.00
48551;DHT22;34397;51.176;6.738;2022-10-31T07:34:21;13.00;65.00
48551;DHT22;34397;51.176;6.738;2022-10-31T07:36:52;13.10;64.70
48551;DHT22;34397;51.176;6.738;2022-10-31T07:39:25;13.10;64.50
48551;DHT22;34397;51.176;6.738;2022-10-31T07:41:57;13.10;64.70
48551;DHT22;34397;51.176;6.738;2022-10-31T07:44:29;13.10;64.80
48551;DHT22;34397;51.176;6.738;2022-10-31T07:47:01;13.10;64.80
48551;DHT22;34397;51.176;6.738;2022-10-31T07:49:33;13.20;64.80
48551;DHT22;34397;51.176;6.738;2022-10-31T07:52:04;13.20;64.80
48551;DHT22;34397;51.176;6.738;2022-10-31T07:54:37;13.20;64.70
48551;DHT22;34397;51.176;6.738;2022-10-31T07:57:09;13.30;64.80
48551;DHT22;34397;51.176;6.738;2022-10-31T07:59:41;13.30;64.80
48551;DHT22;34397;51.176;6.738;2022-10-31T08:02:12;13.40;64.80
48551;DHT22;34397;51.176;6.738;2022-10-31T08:04:44;13.40;64.70
48551;DHT22;34397;51.176;6.738;2022-10-31T08:07:16;13.40;64.70
48551;DHT22;34397;51.176;6.738;2022-10-31T08:09:49;13.50;64.70
48551;DHT22;34397;51.176;6.738;2022-10-31T08:12:20;13.50;64.60
48551;DHT22;34397;51.176;6.738;2022-10-31T08:14:52;13.60;64.60
48551;DHT22;34397;51.176;6.738;2022-10-31T08:17:24;13.70;64.60
48551;DHT22;34397;51.176;6.738;2022-10-31T08:19:55;13.70;64.50
48551;DHT22;34397;51.176;6.738;2022-10-31T08:22:27;13.80;64.40
48551;DHT22;34397;51.176;6.738;2022-10-31T08:25:00;13.80;64.20
48551;DHT22;34397;51.176;6.738;2022-10-31T08:27:32;13.90;64.20
48551;DHT22;34397;51.176;6.738;2022-10-31T08:30:04;13.90;64.10
48551;DHT22;34397;51.176;6.738;2022-10-31T08:32:36;14.00;64.00
48551;DHT22;34397;51.176;6.738;2022-10-31T08:35:08;14.00;63.90
48551;DHT22;34397;51.176;6.738;2022-10-31T08:37:40;14.10;63.70
48551;DHT22;34397;51.176;6.738;2022-10-31T08:40:13;14.10;63.70
48551;DHT22;34397;51.176;6.738;2022-10-31T08:42:45;14.20;63.50
48551;DHT22;34397;51.176;6.738;2022-10-31T08:45:17;14.20;63.40
48551;DHT22;34397;51.176;6.738;2022-10-31T08:47:49;14.30;63.40
48551;DHT22;34397;51.176;6.738;2022-10-31T08:50:20;14.30;63.30
48551;DHT22;34397;51.176;6.738;2022-10-31T08:52:52;14.40;63.30
48551;DHT22;34397;51.176;6.738;2022-10-31T08:55:25;14.50;63.20
48551;DHT22;34397;51.176;6.738;2022-10-31T08:57:57;14.50;63.10
48551;DHT22;34397;51.176;6.738;2022-10-31T09:00:29;14.60;63.00
48551;DHT22;34397;51.176;6.738;2022-10-31T09:03:01;14.60;62.90
48551;DHT22;34397;51.176;6.738;2022-10-31T09:05:34;14.70;62.80
48551;DHT22;34397;51.176;6.738;2022-10-31T09:08:06;14.70;62.70
48551;DHT22;34397;51.176;6.738;2022-10-31T09:10:40;14.80;62.70
48551;DHT22;34397;51.176;6.738;2022-10-31T09:13:12;14.80;62.60
48551;DHT22;34397;51.176;6.738;2022-10-31T09:15:45;14.90;62.30
48551;DHT22;34397;51.176;6.738;2022-10-31T09:18:19;14.90;62.10
48551;DHT22;34397;51.176;6.738;2022-10-31T09:20:51;15.00;62.60
48551;DHT22;34397;51.176;6.738;2022-10-31T09:23:23;15.10;61.80
48551;DHT22;34397;51.176;6.738;2022-10-31T09:25:58;15.10;61.80
48551;DHT22;34397;51.176;6.738;2022-10-31T09:28:31;15.10;61.80
48551;DHT22;34397;51.176;6.738;2022-10-31T09:31:03;15.20;61.80
48551;DHT22;34397;51.176;6.738;2022-10-31T09:33:34;15.20;61.70
48551;DHT22;34397;51.176;6.738;2022-10-31T09:36:07;15.30;61.70
48551;DHT22;34397;51.176;6.738;2022-10-31T09:38:39;15.40;61.50
48551;DHT22;34397;51.176;6.738;2022-10-31T09:41:16;15.40;61.50
48551;DHT22;34397;51.176;6.738;2022-10-31T09:43:54;15.50;61.10
48551;DHT22;34397;51.176;6.738;2022-10-31T09:46:30;15.60;61.20
48551;DHT22;34397;51.176;6.738;2022-10-31T09:49:30;15.60;60.90
48551;DHT22;34397;51.176;6.738;2022-10-31T09:52:09;15.70;60.60
48551;DHT22;34397;51.176;6.738;2022-10-31T09:54:46;15.70;59.70
48551;DHT22;34397;51.176;6.738;2022-10-31T09:57:22;15.70;59.80
48551;DHT22;34397;51.176;6.738;2022-10-31T09:59:55;15.80;59.80
48551;DHT22;34397;51.176;6.738;2022-10-31T10:02:30;15.80;59.70
48551;DHT22;34397;51.176;6.738;2022-10-31T10:05:05;15.90;59.10
48551;DHT22;34397;51.176;6.738;2022-10-31T10:07:44;16.00;59.30
48551;DHT22;34397;51.176;6.738;2022-10-31T10:10:20;16.00;59.50
48551;DHT22;34397;51.176;6.738;2022-10-31T10:13:01;16.00;59.50
48551;DHT22;34397;51.176;6.738;2022-10-31T10:15:46;16.00;59.40
48551;DHT22;34397;51.176;6.738;2022-10-31T10:18:26;16.10;59.10
48551;DHT22;34397;51.176;6.738;2022-10-31T10:21:06;16.20;58.60
48551;DHT22;34397;51.176;6.738;2022-10-31T10:23:48;16.30;59.30
48551;DHT22;34397;51.176;6.738;2022-10-31T10:26:28;16.40;58.60
48551;DHT22;34397;51.176;6.738;2022-10-31T10:29:07;16.50;59.00
48551;DHT22;34397;51.176;6.738;2022-10-31T10:31:52;16.60;58.90
48551;DHT22;34397;51.176;6.738;2022-10-31T10:34:26;16.60;58.70
48551;DHT22;34397;51.176;6.738;2022-10-31T10:37:00;16.70;58.70
48551;DHT22;34397;51.176;6.738;2022-10-31T10:39:35;16.70;58.60
48551;DHT22;34397;51.176;6.738;2022-10-31T10:42:10;16.70;58.60
48551;DHT22;34397;51.176;6.738;2022-10-31T10:45:06;16.70;58.60
48551;DHT22;34397;51.176;6.738;2022-10-31T10:48:06;16.80;58.30
48551;DHT22;34397;51.176;6.738;2022-10-31T10:50:44;16.90;58.60
48551;DHT22;34397;51.176;6.738;2022-10-31T10:53:21;17.10;58.70
48551;DHT22;34397;51.176;6.738;2022-10-31T10:56:09;17.30;58.80
48551;DHT22;34397;51.176;6.738;2022-10-31T10:58:45;17.50;59.50
48551;DHT22;34397;51.176;6.738;2022-10-31T11:01:18;17.80;58.30
48551;DHT22;34397;51.176;6.738;2022-10-31T11:03:50;18.10;57.90
48551;DHT22;34397;51.176;6.738;2022-10-31T11:06:22;18.30;56.10
48551;DHT22;34397;51.176;6.738;2022-10-31T11:08:56;18.50;57.30
48551;DHT22;34397;51.176;6.738;2022-10-31T11:11:28;18.60;56.20
48551;DHT22;34397;51.176;6.738;2022-10-31T11:14:02;18.80;55.50
48551;DHT22;34397;51.176;6.738;2022-10-31T11:16:37;18.90;53.50
48551;DHT22;34397;51.176;6.738;2022-10-31T11:19:13;19.00;53.30
48551;DHT22;34397;51.176;6.738;2022-10-31T11:21:47;19.20;53.50
48551;DHT22;34397;51.176;6.738;2022-10-31T11:24:20;19.30;52.80
48551;DHT22;34397;51.176;6.738;2022-10-31T11:27:02;19.40;52.80
48551;DHT22;34397;51.176;6.738;2022-10-31T11:29:36;19.40;51.90
48551;DHT22;34397;51.176;6.738;2022-10-31T11:32:16;19.50;51.90
48551;DHT22;34397;51.176;6.738;2022-10-31T11:34:51;19.60;51.20
48551;DHT22;34397;51.176;6.738;2022-10-31T11:37:24;19.60;52.30
48551;DHT22;34397;51.176;6.738;2022-10-31T11:39:58;19.70;51.20
48551;DHT22;34397;51.176;6.738;2022-10-31T11:42:34;19.70;50.10
48551;DHT22;34397;51.176;6.738;2022-10-31T11:45:13;19.60;50.80
48551;DHT22;34397;51.176;6.738;2022-10-31T11:47:48;19.60;50.80
48551;DHT22;34397;51.176;6.738;2022-10-31T11:50:22;19.60;50.80
48551;DHT22;34397;51.176;6.738;2022-10-31T11:52:55;19.50;51.40
48551;DHT22;34397;51.176;6.738;2022-10-31T11:55:31;19.50;50.90
48551;DHT22;34397;51.176;6.738;2022-10-31T11:58:04;19.50;51.60
48551;DHT22;34397;51.176;6.738;2022-10-31T12:00:37;19.50;51.40
48551;DHT22;34397;51.176;6.738;2022-10-31T12:03:15;19.50;51.50
48551;DHT22;34397;51.176;6.738;2022-10-31T12:05:58;19.40;50.80
48551;DHT22;34397;51.176;6.738;2022-10-31T12:08:32;19.40;49.60
48551;DHT22;34397;51.176;6.738;2022-10-31T12:11:08;19.30;49.40
48551;DHT22;34397;51.176;6.738;2022-10-31T12:13:46;19.10;50.40
48551;DHT22;34397;51.176;6.738;2022-10-31T12:16:26;19.10;50.40
48551;DHT22;34397;51.176;6.738;2022-10-31T12:19:03;19.10;50.60
48551;DHT22;34397;51.176;6.738;2022-10-31T12:21:43;19.20;50.60
48551;DHT22;34397;51.176;6.738;2022-10-31T12:24:29;19.20;51.10
48551;DHT22;34397;51.176;6.738;2022-10-31T12:27:15;19.30;49.50
48551;DHT22;34397;51.176;6.738;2022-10-31T12:29:58;19.40;49.00
48551;DHT22;34397;51.176;6.738;2022-10-31T12:32:38;19.40;49.10
48551;DHT22;34397;51.176;6.738;2022-10-31T12:35:18;19.40;49.30
48551;DHT22;34397;51.176;6.738;2022-10-31T12:38:04;19.40;49.70
48551;DHT22;34397;51.176;6.738;2022-10-31T12:40:59;19.50;48.70
48551;DHT22;34397;51.176;6.738;2022-10-31T12:43:55;19.60;49.00
48551;DHT22;34397;51.176;6.738;2022-10-31T12:46:31;19.70;48.30
48551;DHT22;34397;51.176;6.738;2022-10-31T12:49:17;19.80;48.20
48551;DHT22;34397;51.176;6.738;2022-10-31T12:52:03;19.90;48.00
48551;DHT22;34397;51.176;6.738;2022-10-31T12:54:44;20.00;47.80
48551;DHT22;34397;51.176;6.738;2022-10-31T12:57:23;20.10;46.90
48551;DHT22;34397;51.176;6.738;2022-10-31T13:00:00;20.10;47.20
48551;DHT22;34397;51.176;6.738;2022-10-31T13:02:35;20.00;46.90
48551;DHT22;34397;51.176;6.738;2022-10-31T13:05:12;20.00;47.60
48551;DHT22;34397;51.176;6.738;2022-10-31T13:07:48;20.00;47.50
48551;DHT22;34397;51.176;6.738;2022-10-31T13:10:24;20.00;46.90
48551;DHT22;34397;51.176;6.738;2022-10-31T13:12:58;20.00;47.10
48551;DHT22;34397;51.176;6.738;2022-10-31T13:15:35;20.00;47.30
48551;DHT22;34397;51.176;6.738;2022-10-31T13:18:22;20.00;47.20
48551;DHT22;34397;51.176;6.738;2022-10-31T13:20:59;20.00;47.50
48551;DHT22;34397;51.176;6.738;2022-10-31T13:23:34;20.00;47.70
48551;DHT22;34397;51.176;6.738;2022-10-31T13:26:08;19.90;47.50
48551;DHT22;34397;51.176;6.738;2022-10-31T13:28:43;19.90;47.60
48551;DHT22;34397;51.176;6.738;2022-10-31T13:31:16;19.80;47.60
48551;DHT22;34397;51.176;6.738;2022-10-31T13:33:48;19.80;47.80
48551;DHT22;34397;51.176;6.738;2022-10-31T13:36:24;19.80;48.00
48551;DHT22;34397;51.176;6.738;2022-10-31T13:39:02;19.80;47.90
48551;DHT22;34397;51.176;6.738;2022-10-31T13:41:39;19.70;48.00
48551;DHT22;34397;51.176;6.738;2022-10-31T13:44:15;19.70;48.40
48551;DHT22;34397;51.176;6.738;2022-10-31T13:46:50;19.70;48.30
48551;DHT22;34397;51.176;6.738;2022-10-31T13:49:24;19.70;48.30
48551;DHT22;34397;51.176;6.738;2022-10-31T13:52:04;19.70;48.20
48551;DHT22;34397;51.176;6.738;2022-10-31T13:54:39;19.60;48.30
48551;DHT22;34397;51.176;6.738;2022-10-31T13:57:16;19.60;47.80
48551;DHT22;34397;51.176;6.738;2022-10-31T13:59:49;19.60;48.20
48551;DHT22;34397;51.176;6.738;2022-10-31T14:02:25;19.50;48.30
48551;DHT22;34397;51.176;6.738;2022-10-31T14:04:59;19.50;49.00
48551;DHT22;34397;51.176;6.738;2022-10-31T14:07:31;19.50;49.10
48551;DHT22;34397;51.176;6.738;2022-10-31T14:10:05;19.20;48.60
48551;DHT22;34397;51.176;6.738;2022-10-31T14:12:47;19.10;48.90
48551;DHT22;34397;51.176;6.738;2022-10-31T14:15:21;19.00;49.20
48551;DHT22;34397;51.176;6.738;2022-10-31T14:17:55;18.90;49.40
48551;DHT22;34397;51.176;6.738;2022-10-31T14:20:33;18.80;49.30
48551;DHT22;34397;51.176;6.738;2022-10-31T14:23:11;18.80;49.20
48551;DHT22;34397;51.176;6.738;2022-10-31T14:25:45;18.80;49.00
48551;DHT22;34397;51.176;6.738;2022-10-31T14:28:21;18.90;49.30
48551;DHT22;34397;51.176;6.738;2022-10-31T14:31:02;18.80;48.90
48551;DHT22;34397;51.176;6.738;2022-10-31T14:33:34;18.90;49.00
48551;DHT22;34397;51.176;6.738;2022-10-31T14:36:07;18.90;49.00
48551;DHT22;34397;51.176;6.738;2022-10-31T14:38:46;18.90;49.10
48551;DHT22;34397;51.176;6.738;2022-10-31T14:41:32;18.90;49.00
48551;DHT22;34397;51.176;6.738;2022-10-31T14:44:17;18.90;48.90
48551;DHT22;34397;51.176;6.738;2022-10-31T14:47:09;18.90;49.00
48551;DHT22;34397;51.176;6.738;2022-10-31T14:49:57;18.80;48.70
48551;DHT22;34397;51.176;6.738;2022-10-31T14:52:40;18.80;48.90
48551;DHT22;34397;51.176;6.738;2022-10-31T14:55:18;18.70;48.90
48551;DHT22;34397;51.176;6.738;2022-10-31T14:57:52;18.70;49.10
48551;DHT22;34397;51.176;6.738;2022-10-31T15:00:26;18.70;49.10
48551;DHT22;34397;51.176;6.738;2022-10-31T15:03:03;18.70;49.20
48551;DHT22;34397;51.176;6.738;2022-10-31T15:05:40;18.70;49.20
48551;DHT22;34397;51.176;6.738;2022-10-31T15:08:14;18.60;49.40
48551;DHT22;34397;51.176;6.738;2022-10-31T15:10:56;18.60;49.40
48551;DHT22;34397;51.176;6.738;2022-10-31T15:13:29;18.50;49.50
48551;DHT22;34397;51.176;6.738;2022-10-31T15:16:01;18.50;49.60
48551;DHT22;34397;51.176;6.738;2022-10-31T15:18:33;18.50;49.60
48551;DHT22;34397;51.176;6.738;2022-10-31T15:21:05;18.50;49.60
48551;DHT22;34397;51.176;6.738;2022-10-31T15:23:39;18.50;50.30
48551;DHT22;34397;51.176;6.738;2022-10-31T15:26:14;18.50;50.50
48551;DHT22;34397;51.176;6.738;2022-10-31T15:28:58;18.40;50.60
48551;DHT22;34397;51.176;6.738;2022-10-31T15:31:32;18.40;50.90
48551;DHT22;34397;51.176;6.738;2022-10-31T15:34:04;18.40;51.00
48551;DHT22;34397;51.176;6.738;2022-10-31T15:36:38;18.40;50.90
48551;DHT22;34397;51.176;6.738;2022-10-31T15:39:10;18.40;51.00
48551;DHT22;34397;51.176;6.738;2022-10-31T15:41:44;18.40;51.10
48551;DHT22;34397;51.176;6.738;2022-10-31T15:44:22;18.40;50.80
48551;DHT22;34397;51.176;6.738;2022-10-31T15:46:56;18.40;50.60
48551;DHT22;34397;51.176;6.738;2022-10-31T15:49:31;18.40;50.90
48551;DHT22;34397;51.176;6.738;2022-10-31T15:52:06;18.40;51.10
48551;DHT22;34397;51.176;6.738;2022-10-31T15:54:44;18.30;51.00
48551;DHT22;34397;51.176;6.738;2022-10-31T15:57:18;18.30;51.10
48551;DHT22;34397;51.176;6.738;2022-10-31T15:59:51;18.30;51.10
48551;DHT22;34397;51.176;6.738;2022-10-31T16:02:23;18.30;51.30
48551;DHT22;34397;51.176;6.738;2022-10-31T16:04:56;18.30;51.40
48551;DHT22;34397;51.176;6.738;2022-10-31T16:07:29;18.20;51.40
48551;DHT22;34397;51.176;6.738;2022-10-31T16:10:02;18.20;51.60
48551;DHT22;34397;51.176;6.738;2022-10-31T16:12:35;18.10;51.10
48551;DHT22;34397;51.176;6.738;2022-10-31T16:15:13;18.10;51.70
48551;DHT22;34397;51.176;6.738;2022-10-31T16:17:47;18.00;51.90
48551;DHT22;34397;51.176;6.738;2022-10-31T16:20:21;18.00;51.80